sensor_id;sensor_type;location;lat;lon;timestamp;temperature;humidity
57566;DHT22;63999;43.882;-0.310;2022-11-15T00:00:53;13.20;82.30
57566;DHT22;63999;43.882;-0.310;2022-11-15T00:03:22;13.20;82.20
57566;DHT22;63999;43.882;-0.310;2022-11-15T00:05:48;13.20;82.30
57566;DHT22;63999;43.882;-0.310;2022-11-15T00:08:14;13.20;82.20
57566;DHT22;63999;43.882;-0.310;2022-11-15T00:10:40;13.20;82.40
57566;DHT22;63999;43.882;-0.310;2022-11-15T00:13:11;13.20;82.20
57566;DHT22;63999;43.882;-0.310;2022-11-15T00:15:38;13.20;82.20
57566;DHT22;63999;43.882;-0.310;2022-11-15T00:18:05;13.30;82.20
57566;DHT22;63999;43.882;-0.310;2022-11-15T00:20:33;13.20;82.20
57566;DHT22;63999;43.882;-0.310;2022-11-15T00:22:59;13.20;82.30
57566;DHT22;63999;43.882;-0.310;2022-11-15T00:25:27;13.20;82.20
57566;DHT22;63999;43.882;-0.310;2022-11-15T00:27:57;13.30;82.10
57566;DHT22;63999;43.882;-0.310;2022-11-15T00:30:23;13.20;82.00
57566;DHT22;63999;43.882;-0.310;2022-11-15T00:32:49;13.20;82.10
57566;DHT22;63999;43.882;-0.310;2022-11-15T00:35:15;13.20;82.00
57566;DHT22;63999;43.882;-0.310;2022-11-15T00:37:41;13.20;82.00
57566;DHT22;63999;43.882;-0.310;2022-11-15T00:40:08;13.20;82.00
57566;DHT22;63999;43.882;-0.310;2022-11-15T00:42:34;13.20;82.00
57566;DHT22;63999;43.882;-0.310;2022-11-15T00:45:00;13.10;82.00
57566;DHT22;63999;43.882;-0.310;2022-11-15T00:47:25;13.20;82.10
57566;DHT22;63999;43.882;-0.310;2022-11-15T00:49:51;13.10;82.10
57566;DHT22;63999;43.882;-0.310;2022-11-15T00:52:17;13.20;82.00
57566;DHT22;63999;43.882;-0.310;2022-11-15T00:54:43;13.10;82.00
57566;DHT22;63999;43.882;-0.310;2022-11-15T00:57:09;13.10;82.10
57566;DHT22;63999;43.882;-0.310;2022-11-15T00:59:35;13.10;82.00
57566;DHT22;63999;43.882;-0.310;2022-11-15T01:02:01;13.10;82.00
57566;DHT22;63999;43.882;-0.310;2022-11-15T01:04:27;13.10;82.00
57566;DHT22;63999;43.882;-0.310;2022-11-15T01:06:54;13.10;82.00
57566;DHT22;63999;43.882;-0.310;2022-11-15T01:09:19;13.10;82.00
57566;DHT22;63999;43.882;-0.310;2022-11-15T01:11:45;13.10;82.00
57566;DHT22;63999;43.882;-0.310;2022-11-15T01:14:11;13.10;82.00
57566;DHT22;63999;43.882;-0.310;2022-11-15T01:16:37;13.10;82.00
57566;DHT22;63999;43.882;-0.310;2022-11-15T01:19:03;13.10;81.90
57566;DHT22;63999;43.882;-0.310;2022-11-15T01:21:29;13.10;82.00
57566;DHT22;63999;43.882;-0.310;2022-11-15T01:23:56;13.10;82.00
57566;DHT22;63999;43.882;-0.310;2022-11-15T01:26:23;13.10;81.90
57566;DHT22;63999;43.882;-0.310;2022-11-15T01:28:49;13.10;81.80
57566;DHT22;63999;43.882;-0.310;2022-11-15T01:31:20;13.10;81.90
57566;DHT22;63999;43.882;-0.310;2022-11-15T01:33:47;13.10;81.90
57566;DHT22;63999;43.882;-0.310;2022-11-15T01:36:20;13.10;81.90
57566;DHT22;63999;43.882;-0.310;2022-11-15T01:38:54;13.10;81.90
57566;DHT22;63999;43.882;-0.310;2022-11-15T01:41:25;13.10;81.90
57566;DHT22;63999;43.882;-0.310;2022-11-15T01:43:57;13.10;82.00
57566;DHT22;63999;43.882;-0.310;2022-11-15T01:46:28;13.10;81.90
57566;DHT22;63999;43.882;-0.310;2022-11-15T01:48:58;13.10;81.90
57566;DHT22;63999;43.882;-0.310;2022-11-15T01:51:27;13.10;81.90
57566;DHT22;63999;43.882;-0.310;2022-11-15T01:53:56;13.10;82.00
57566;DHT22;63999;43.882;-0.310;2022-11-15T01:56:25;13.10;82.00
57566;DHT22;63999;43.882;-0.310;2022-11-15T01:58:53;13.10;82.00
57566;DHT22;63999;43.882;-0.310;2022-11-15T02:01:21;13.00;81.90
57566;DHT22;63999;43.882;-0.310;2022-11-15T02:03:55;13.10;81.90
57566;DHT22;63999;43.882;-0.310;2022-11-15T02:06:22;13.10;82.10
57566;DHT22;63999;43.882;-0.310;2022-11-15T02:08:49;13.00;82.00
57566;DHT22;63999;43.882;-0.310;2022-11-15T02:11:15;13.10;82.00
57566;DHT22;63999;43.882;-0.310;2022-11-15T02:13:42;13.10;82.00
57566;DHT22;63999;43.882;-0.310;2022-11-15T02:19:15;13.00;82.10
57566;DHT22;63999;43.882;-0.310;2022-11-15T02:21:47;13.00;82.00
57566;DHT22;63999;43.882;-0.310;2022-11-15T02:27:42;13.00;82.00
57566;DHT22;63999;43.882;-0.310;2022-11-15T02:30:32;13.00;81.90
57566;DHT22;63999;43.882;-0.310;2022-11-15T02:33:11;13.00;82.00
57566;DHT22;63999;43.882;-0.310;2022-11-15T02:35:52;13.00;81.90
57566;DHT22;63999;43.882;-0.310;2022-11-15T02:38:29;13.00;82.10
57566;DHT22;63999;43.882;-0.310;2022-11-15T02:41:03;13.00;81.90
57566;DHT22;63999;43.882;-0.310;2022-11-15T02:46:23;13.00;82.00
57566;DHT22;63999;43.882;-0.310;2022-11-15T02:49:13;13.00;82.10
57566;DHT22;63999;43.882;-0.310;2022-11-15T02:51:41;13.00;82.00
57566;DHT22;63999;43.882;-0.310;2022-11-15T02:54:12;13.00;82.00
57566;DHT22;63999;43.882;-0.310;2022-11-15T02:56:40;13.00;82.00
57566;DHT22;63999;43.882;-0.310;2022-11-15T03:04:46;13.00;82.00
57566;DHT22;63999;43.882;-0.310;2022-11-15T03:07:37;13.00;82.00
57566;DHT22;63999;43.882;-0.310;2022-11-15T03:10:08;13.00;82.10
57566;DHT22;63999;43.882;-0.310;2022-11-15T03:12:46;13.00;82.20
57566;DHT22;63999;43.882;-0.310;2022-11-15T03:15:24;12.90;82.20
57566;DHT22;63999;43.882;-0.310;2022-11-15T03:18:05;12.90;82.20
57566;DHT22;63999;43.882;-0.310;2022-11-15T03:20:32;12.90;82.30
57566;DHT22;63999;43.882;-0.310;2022-11-15T03:23:09;12.90;82.20
57566;DHT22;63999;43.882;-0.310;2022-11-15T03:25:40;12.90;82.20
57566;DHT22;63999;43.882;-0.310;2022-11-15T03:28:09;12.90;82.20
57566;DHT22;63999;43.882;-0.310;2022-11-15T03:30:37;12.90;82.20
57566;DHT22;63999;43.882;-0.310;2022-11-15T03:33:05;12.90;82.10
57566;DHT22;63999;43.882;-0.310;2022-11-15T03:35:39;12.90;82.20
57566;DHT22;63999;43.882;-0.310;2022-11-15T03:38:16;12.90;82.20
57566;DHT22;63999;43.882;-0.310;2022-11-15T03:40:47;12.90;82.00
57566;DHT22;63999;43.882;-0.310;2022-11-15T03:45:56;12.90;82.10
57566;DHT22;63999;43.882;-0.310;2022-11-15T03:48:25;12.90;82.30
57566;DHT22;63999;43.882;-0.310;2022-11-15T03:50:52;12.90;82.20
57566;DHT22;63999;43.882;-0.310;2022-11-15T03:53:18;12.90;82.20
57566;DHT22;63999;43.882;-0.310;2022-11-15T03:55:44;12.90;82.00
57566;DHT22;63999;43.882;-0.310;2022-11-15T03:58:09;12.90;82.00
57566;DHT22;63999;43.882;-0.310;2022-11-15T04:00:35;12.90;82.10
57566;DHT22;63999;43.882;-0.310;2022-11-15T04:03:01;12.80;82.00
57566;DHT22;63999;43.882;-0.310;2022-11-15T04:05:27;12.80;82.00
57566;DHT22;63999;43.882;-0.310;2022-11-15T04:07:53;12.80;82.00
57566;DHT22;63999;43.882;-0.310;2022-11-15T04:10:18;12.90;82.00
57566;DHT22;63999;43.882;-0.310;2022-11-15T04:12:45;12.80;82.10
57566;DHT22;63999;43.882;-0.310;2022-11-15T04:15:16;12.80;82.10
57566;DHT22;63999;43.882;-0.310;2022-11-15T04:17:50;12.80;82.20
57566;DHT22;63999;43.882;-0.310;2022-11-15T04:20:28;12.80;82.20
57566;DHT22;63999;43.882;-0.310;2022-11-15T04:23:18;12.80;82.20
57566;DHT22;63999;43.882;-0.310;2022-11-15T04:26:11;12.80;82.10
57566;DHT22;63999;43.882;-0.310;2022-11-15T04:28:38;12.80;82.10
57566;DHT22;63999;43.882;-0.310;2022-11-15T04:31:23;12.80;82.10
57566;DHT22;63999;43.882;-0.310;2022-11-15T04:33:48;12.80;82.20
57566;DHT22;63999;43.882;-0.310;2022-11-15T04:36:14;12.80;82.00
57566;DHT22;63999;43.882;-0.310;2022-11-15T04:38:59;12.80;82.10
57566;DHT22;63999;43.882;-0.310;2022-11-15T04:41:24;12.80;82.10
57566;DHT22;63999;43.882;-0.310;2022-11-15T04:43:50;12.80;82.10
57566;DHT22;63999;43.882;-0.310;2022-11-15T04:46:17;12.80;82.10
57566;DHT22;63999;43.882;-0.310;2022-11-15T04:48:42;12.80;82.20
57566;DHT22;63999;43.882;-0.310;2022-11-15T04:51:08;12.80;82.10
57566;DHT22;63999;43.882;-0.310;2022-11-15T04:53:34;12.80;82.20
57566;DHT22;63999;43.882;-0.310;2022-11-15T04:56:00;12.80;82.10
57566;DHT22;63999;43.882;-0.310;2022-11-15T04:58:25;12.80;82.20
57566;DHT22;63999;43.882;-0.310;2022-11-15T05:00:51;12.80;82.20
57566;DHT22;63999;43.882;-0.310;2022-11-15T05:03:17;12.80;82.20
57566;DHT22;63999;43.882;-0.310;2022-11-15T05:06:02;12.80;82.00
57566;DHT22;63999;43.882;-0.310;2022-11-15T05:08:27;12.80;82.10
57566;DHT22;63999;43.882;-0.310;2022-11-15T05:10:53;12.80;82.20
57566;DHT22;63999;43.882;-0.310;2022-11-15T05:13:19;12.80;82.20
57566;DHT22;63999;43.882;-0.310;2022-11-15T05:15:44;12.80;82.20
57566;DHT22;63999;43.882;-0.310;2022-11-15T05:18:10;12.80;82.20
57566;DHT22;63999;43.882;-0.310;2022-11-15T05:20:36;12.80;82.20
57566;DHT22;63999;43.882;-0.310;2022-11-15T05:23:02;12.80;82.30
57566;DHT22;63999;43.882;-0.310;2022-11-15T05:25:28;12.80;82.30
57566;DHT22;63999;43.882;-0.310;2022-11-15T05:27:54;12.70;82.20
57566;DHT22;63999;43.882;-0.310;2022-11-15T05:30:20;12.70;82.10
57566;DHT22;63999;43.882;-0.310;2022-11-15T05:32:46;12.70;82.20
57566;DHT22;63999;43.882;-0.310;2022-11-15T05:35:20;12.70;82.20
57566;DHT22;63999;43.882;-0.310;2022-11-15T05:37:47;12.70;82.30
57566;DHT22;63999;43.882;-0.310;2022-11-15T05:40:13;12.70;82.30
57566;DHT22;63999;43.882;-0.310;2022-11-15T05:42:39;12.70;82.20
57566;DHT22;63999;43.882;-0.310;2022-11-15T05:45:06;12.70;82.20
57566;DHT22;63999;43.882;-0.310;2022-11-15T05:47:34;12.70;82.20
57566;DHT22;63999;43.882;-0.310;2022-11-15T05:50:01;12.70;82.30
57566;DHT22;63999;43.882;-0.310;2022-11-15T05:52:30;12.70;82.10
57566;DHT22;63999;43.882;-0.310;2022-11-15T05:54:57;12.70;82.20
57566;DHT22;63999;43.882;-0.310;2022-11-15T05:57:24;12.70;82.20
57566;DHT22;63999;43.882;-0.310;2022-11-15T05:59:50;12.70;82.30
57566;DHT22;63999;43.882;-0.310;2022-11-15T06:02:16;12.70;82.20
57566;DHT22;63999;43.882;-0.310;2022-11-15T06:04:41;12.70;82.30
57566;DHT22;63999;43.882;-0.310;2022-11-15T06:07:07;12.70;82.30
57566;DHT22;63999;43.882;-0.310;2022-11-15T06:09:37;12.70;82.20
57566;DHT22;63999;43.882;-0.310;2022-11-15T06:12:03;12.70;82.20
57566;DHT22;63999;43.882;-0.310;2022-11-15T06:14:29;12.70;82.30
57566;DHT22;63999;43.882;-0.310;2022-11-15T06:16:55;12.70;82.30
57566;DHT22;63999;43.882;-0.310;2022-11-15T06:19:21;12.70;82.20
57566;DHT22;63999;43.882;-0.310;2022-11-15T06:21:46;12.70;82.30
57566;DHT22;63999;43.882;-0.310;2022-11-15T06:24:12;12.70;82.00
57566;DHT22;63999;43.882;-0.310;2022-11-15T06:26:38;12.70;82.30
57566;DHT22;63999;43.882;-0.310;2022-11-15T06:29:04;12.70;82.30
57566;DHT22;63999;43.882;-0.310;2022-11-15T06:31:30;12.70;82.40
57566;DHT22;63999;43.882;-0.310;2022-11-15T06:33:56;12.70;82.30
57566;DHT22;63999;43.882;-0.310;2022-11-15T06:36:22;12.70;82.40
57566;DHT22;63999;43.882;-0.310;2022-11-15T06:38:48;12.60;82.30
57566;DHT22;63999;43.882;-0.310;2022-11-15T06:41:14;12.60;82.30
57566;DHT22;63999;43.882;-0.310;2022-11-15T06:43:41;12.70;82.50
57566;DHT22;63999;43.882;-0.310;2022-11-15T06:46:07;12.60;82.40
57566;DHT22;63999;43.882;-0.310;2022-11-15T06:48:36;12.60;82.50
57566;DHT22;63999;43.882;-0.310;2022-11-15T06:51:04;12.60;82.50
57566;DHT22;63999;43.882;-0.310;2022-11-15T06:53:30;12.60;82.40
57566;DHT22;63999;43.882;-0.310;2022-11-15T06:56:05;12.60;82.40
57566;DHT22;63999;43.882;-0.310;2022-11-15T06:58:31;12.60;82.70
57566;DHT22;63999;43.882;-0.310;2022-11-15T07:01:08;12.60;82.40
57566;DHT22;63999;43.882;-0.310;2022-11-15T07:03:36;12.60;82.70
57566;DHT22;63999;43.882;-0.310;2022-11-15T07:06:02;12.60;82.60
57566;DHT22;63999;43.882;-0.310;2022-11-15T07:08:28;12.60;82.60
57566;DHT22;63999;43.882;-0.310;2022-11-15T07:10:58;12.60;82.60
57566;DHT22;63999;43.882;-0.310;2022-11-15T07:13:29;12.60;82.70
57566;DHT22;63999;43.882;-0.310;2022-11-15T07:16:07;12.60;82.70
57566;DHT22;63999;43.882;-0.310;2022-11-15T07:18:41;12.60;82.70
57566;DHT22;63999;43.882;-0.310;2022-11-15T07:21:11;12.60;82.70
57566;DHT22;63999;43.882;-0.310;2022-11-15T07:23:40;12.60;82.70
57566;DHT22;63999;43.882;-0.310;2022-11-15T07:26:08;12.60;82.70
57566;DHT22;63999;43.882;-0.310;2022-11-15T07:28:34;12.60;82.80
57566;DHT22;63999;43.882;-0.310;2022-11-15T07:31:04;12.60;82.70
57566;DHT22;63999;43.882;-0.310;2022-11-15T07:33:30;12.50;82.80
57566;DHT22;63999;43.882;-0.310;2022-11-15T07:35:59;12.60;82.90
57566;DHT22;63999;43.882;-0.310;2022-11-15T07:38:27;12.60;82.90
57566;DHT22;63999;43.882;-0.310;2022-11-15T07:41:00;12.60;82.90
57566;DHT22;63999;43.882;-0.310;2022-11-15T07:43:26;12.60;83.00
57566;DHT22;63999;43.882;-0.310;2022-11-15T07:45:58;12.60;82.80
57566;DHT22;63999;43.882;-0.310;2022-11-15T07:48:23;12.60;82.80
57566;DHT22;63999;43.882;-0.310;2022-11-15T07:50:49;12.60;82.90
57566;DHT22;63999;43.882;-0.310;2022-11-15T07:53:15;12.60;82.90
57566;DHT22;63999;43.882;-0.310;2022-11-15T07:55:41;12.50;82.90
57566;DHT22;63999;43.882;-0.310;2022-11-15T07:58:09;12.60;83.10
57566;DHT22;63999;43.882;-0.310;2022-11-15T08:00:36;12.60;83.10
57566;DHT22;63999;43.882;-0.310;2022-11-15T08:03:13;12.60;83.20
57566;DHT22;63999;43.882;-0.310;2022-11-15T08:05:40;12.60;83.10
57566;DHT22;63999;43.882;-0.310;2022-11-15T08:08:07;12.60;83.10
57566;DHT22;63999;43.882;-0.310;2022-11-15T08:10:34;12.60;83.20
57566;DHT22;63999;43.882;-0.310;2022-11-15T08:13:02;12.60;83.20
57566;DHT22;63999;43.882;-0.310;2022-11-15T08:15:28;12.60;83.00
57566;DHT22;63999;43.882;-0.310;2022-11-15T08:17:59;12.60;83.30
57566;DHT22;63999;43.882;-0.310;2022-11-15T08:20:26;12.70;83.10
57566;DHT22;63999;43.882;-0.310;2022-11-15T08:22:55;12.60;83.10
57566;DHT22;63999;43.882;-0.310;2022-11-15T08:25:22;12.60;83.50
57566;DHT22;63999;43.882;-0.310;2022-11-15T08:27:51;12.60;83.00
57566;DHT22;63999;43.882;-0.310;2022-11-15T08:30:17;12.70;83.10
57566;DHT22;63999;43.882;-0.310;2022-11-15T08:32:43;12.70;83.00
57566;DHT22;63999;43.882;-0.310;2022-11-15T08:35:08;12.70;83.20
57566;DHT22;63999;43.882;-0.310;2022-11-15T08:37:34;12.60;83.10
57566;DHT22;63999;43.882;-0.310;2022-11-15T08:40:01;12.70;83.30
57566;DHT22;63999;43.882;-0.310;2022-11-15T08:42:26;12.70;83.30
57566;DHT22;63999;43.882;-0.310;2022-11-15T08:44:52;12.70;83.30
57566;DHT22;63999;43.882;-0.310;2022-11-15T08:47:18;12.60;83.20
57566;DHT22;63999;43.882;-0.310;2022-11-15T08:49:43;12.70;83.30
57566;DHT22;63999;43.882;-0.310;2022-11-15T08:52:09;12.70;83.20
57566;DHT22;63999;43.882;-0.310;2022-11-15T08:54:35;12.70;83.30
57566;DHT22;63999;43.882;-0.310;2022-11-15T08:57:00;12.70;83.00
57566;DHT22;63999;43.882;-0.310;2022-11-15T08:59:26;12.70;83.10
57566;DHT22;63999;43.882;-0.310;2022-11-15T09:01:52;12.70;83.20
57566;DHT22;63999;43.882;-0.310;2022-11-15T09:04:18;12.70;83.50
57566;DHT22;63999;43.882;-0.310;2022-11-15T09:06:43;12.70;83.40
57566;DHT22;63999;43.882;-0.310;2022-11-15T09:09:09;12.70;83.30
57566;DHT22;63999;43.882;-0.310;2022-11-15T09:11:35;12.70;83.30
57566;DHT22;63999;43.882;-0.310;2022-11-15T09:14:00;12.70;83.30
57566;DHT22;63999;43.882;-0.310;2022-11-15T09:16:26;12.70;83.30
57566;DHT22;63999;43.882;-0.310;2022-11-15T09:18:53;12.70;83.30
57566;DHT22;63999;43.882;-0.310;2022-11-15T09:21:19;12.70;83.60
57566;DHT22;63999;43.882;-0.310;2022-11-15T09:23:44;12.70;83.50
57566;DHT22;63999;43.882;-0.310;2022-11-15T09:26:10;12.70;83.30
57566;DHT22;63999;43.882;-0.310;2022-11-15T09:28:36;12.70;83.20
57566;DHT22;63999;43.882;-0.310;2022-11-15T09:31:04;12.70;83.30
57566;DHT22;63999;43.882;-0.310;2022-11-15T09:33:30;12.70;83.70
57566;DHT22;63999;43.882;-0.310;2022-11-15T09:36:07;12.70;83.80
57566;DHT22;63999;43.882;-0.310;2022-11-15T09:38:33;12.80;83.30
57566;DHT22;63999;43.882;-0.310;2022-11-15T09:41:22;12.70;83.70
57566;DHT22;63999;43.882;-0.310;2022-11-15T09:44:14;12.80;83.80
57566;DHT22;63999;43.882;-0.310;2022-11-15T09:49:24;12.80;83.70
57566;DHT22;63999;43.882;-0.310;2022-11-15T09:51:51;12.80;83.40
57566;DHT22;63999;43.882;-0.310;2022-11-15T09:54:34;12.80;83.50
57566;DHT22;63999;43.882;-0.310;2022-11-15T10:00:06;12.80;83.70
57566;DHT22;63999;43.882;-0.310;2022-11-15T10:03:16;12.80;83.50
57566;DHT22;63999;43.882;-0.310;2022-11-15T10:05:45;12.80;83.90
57566;DHT22;63999;43.882;-0.310;2022-11-15T10:11:10;12.80;83.70
57566;DHT22;63999;43.882;-0.310;2022-11-15T10:13:41;12.80;84.00
57566;DHT22;63999;43.882;-0.310;2022-11-15T10:24:19;12.90;83.90
57566;DHT22;63999;43.882;-0.310;2022-11-15T10:26:47;12.90;83.80
57566;DHT22;63999;43.882;-0.310;2022-11-15T10:29:19;12.90;83.90
57566;DHT22;63999;43.882;-0.310;2022-11-15T10:31:45;12.90;84.40
57566;DHT22;63999;43.882;-0.310;2022-11-15T10:34:15;12.90;84.00
57566;DHT22;63999;43.882;-0.310;2022-11-15T10:36:55;12.90;84.00
57566;DHT22;63999;43.882;-0.310;2022-11-15T10:39:21;12.90;84.00
57566;DHT22;63999;43.882;-0.310;2022-11-15T10:41:47;12.90;83.70
57566;DHT22;63999;43.882;-0.310;2022-11-15T10:46:44;12.90;83.80
57566;DHT22;63999;43.882;-0.310;2022-11-15T10:49:21;12.90;83.90
57566;DHT22;63999;43.882;-0.310;2022-11-15T10:51:51;12.90;83.90
57566;DHT22;63999;43.882;-0.310;2022-11-15T10:57:14;12.90;84.00
57566;DHT22;63999;43.882;-0.310;2022-11-15T10:59:46;13.00;83.80
57566;DHT22;63999;43.882;-0.310;2022-11-15T11:02:38;13.00;83.70
57566;DHT22;63999;43.882;-0.310;2022-11-15T11:05:20;13.00;83.70
57566;DHT22;63999;43.882;-0.310;2022-11-15T11:08:00;13.00;83.60
57566;DHT22;63999;43.882;-0.310;2022-11-15T11:10:27;13.00;83.60
57566;DHT22;63999;43.882;-0.310;2022-11-15T11:12:53;13.00;83.90
57566;DHT22;63999;43.882;-0.310;2022-11-15T11:15:19;13.00;83.70
57566;DHT22;63999;43.882;-0.310;2022-11-15T11:17:54;13.00;83.80
57566;DHT22;63999;43.882;-0.310;2022-11-15T11:20:44;13.00;83.60
57566;DHT22;63999;43.882;-0.310;2022-11-15T11:36:56;13.10;84.00
57566;DHT22;63999;43.882;-0.310;2022-11-15T11:42:34;13.10;84.10
57566;DHT22;63999;43.882;-0.310;2022-11-15T11:45:18;13.10;83.90
57566;DHT22;63999;43.882;-0.310;2022-11-15T11:50:28;13.10;84.00
57566;DHT22;63999;43.882;-0.310;2022-11-15T11:53:27;13.10;84.20
57566;DHT22;63999;43.882;-0.310;2022-11-15T11:55:58;13.10;84.00
57566;DHT22;63999;43.882;-0.310;2022-11-15T11:58:43;13.10;84.70
57566;DHT22;63999;43.882;-0.310;2022-11-15T12:03:55;13.10;84.20
57566;DHT22;63999;43.882;-0.310;2022-11-15T12:06:38;13.10;84.50
57566;DHT22;63999;43.882;-0.310;2022-11-15T12:09:35;13.10;84.20
57566;DHT22;63999;43.882;-0.310;2022-11-15T12:12:17;13.10;84.20
57566;DHT22;63999;43.882;-0.310;2022-11-15T12:14:45;13.10;84.50
57566;DHT22;63999;43.882;-0.310;2022-11-15T12:17:12;13.10;84.70
57566;DHT22;63999;43.882;-0.310;2022-11-15T12:19:39;13.10;84.20
57566;DHT22;63999;43.882;-0.310;2022-11-15T12:28:12;13.10;84.10
57566;DHT22;63999;43.882;-0.310;2022-11-15T12:30:54;13.20;84.80
57566;DHT22;63999;43.882;-0.310;2022-11-15T12:33:42;13.20;84.00
57566;DHT22;63999;43.882;-0.310;2022-11-15T12:39:05;13.30;84.10
57566;DHT22;63999;43.882;-0.310;2022-11-15T12:41:33;13.30;84.20
57566;DHT22;63999;43.882;-0.310;2022-11-15T12:44:00;13.20;84.20
57566;DHT22;63999;43.882;-0.310;2022-11-15T12:49:07;13.20;83.90
57566;DHT22;63999;43.882;-0.310;2022-11-15T13:00:00;13.30;84.40
57566;DHT22;63999;43.882;-0.310;2022-11-15T13:08:07;13.30;84.10
57566;DHT22;63999;43.882;-0.310;2022-11-15T13:10:33;13.30;84.00
57566;DHT22;63999;43.882;-0.310;2022-11-15T13:13:04;13.30;84.10
57566;DHT22;63999;43.882;-0.310;2022-11-15T13:15:52;13.30;83.80
57566;DHT22;63999;43.882;-0.310;2022-11-15T13:18:37;13.30;83.80
57566;DHT22;63999;43.882;-0.310;2022-11-15T13:21:05;13.30;84.00
57566;DHT22;63999;43.882;-0.310;2022-11-15T13:23:55;13.30;83.80
57566;DHT22;63999;43.882;-0.310;2022-11-15T13:26:21;13.30;83.70
57566;DHT22;63999;43.882;-0.310;2022-11-15T13:28:49;13.30;83.90
57566;DHT22;63999;43.882;-0.310;2022-11-15T13:33:59;13.30;83.70
57566;DHT22;63999;43.882;-0.310;2022-11-15T13:36:32;13.30;83.80
57566;DHT22;63999;43.882;-0.310;2022-11-15T13:39:05;13.30;83.70
57566;DHT22;63999;43.882;-0.310;2022-11-15T13:41:33;13.30;83.70
57566;DHT22;63999;43.882;-0.310;2022-11-15T13:44:01;13.30;83.70
57566;DHT22;63999;43.882;-0.310;2022-11-15T13:46:29;13.30;83.80
57566;DHT22;63999;43.882;-0.310;2022-11-15T13:49:03;13.30;83.80
57566;DHT22;63999;43.882;-0.310;2022-11-15T13:51:44;13.30;83.80
57566;DHT22;63999;43.882;-0.310;2022-11-15T13:54:28;13.30;83.80
57566;DHT22;63999;43.882;-0.310;2022-11-15T13:57:12;13.30;83.70
57566;DHT22;63999;43.882;-0.310;2022-11-15T14:02:14;13.30;83.90
57566;DHT22;63999;43.882;-0.310;2022-11-15T14:04:56;13.30;83.80
57566;DHT22;63999;43.882;-0.310;2022-11-15T14:07:25;13.30;83.80
57566;DHT22;63999;43.882;-0.310;2022-11-15T14:09:52;13.30;83.80
57566;DHT22;63999;43.882;-0.310;2022-11-15T14:12:35;13.30;84.30
57566;DHT22;63999;43.882;-0.310;2022-11-15T14:17:50;13.30;84.10
57566;DHT22;63999;43.882;-0.310;2022-11-15T14:20:26;13.40;84.30
57566;DHT22;63999;43.882;-0.310;2022-11-15T14:22:55;13.40;84.10
57566;DHT22;63999;43.882;-0.310;2022-11-15T14:25:26;13.40;84.20
57566;DHT22;63999;43.882;-0.310;2022-11-15T14:30:44;13.50;84.40
57566;DHT22;63999;43.882;-0.310;2022-11-15T14:33:38;13.50;84.10
57566;DHT22;63999;43.882;-0.310;2022-11-15T14:36:14;13.50;84.20
57566;DHT22;63999;43.882;-0.310;2022-11-15T14:38:40;13.50;84.10
57566;DHT22;63999;43.882;-0.310;2022-11-15T14:41:26;13.50;84.00
57566;DHT22;63999;43.882;-0.310;2022-11-15T14:43:57;13.50;83.90
57566;DHT22;63999;43.882;-0.310;2022-11-15T14:46:23;13.50;83.90
57566;DHT22;63999;43.882;-0.310;2022-11-15T14:48:49;13.50;84.20
57566;DHT22;63999;43.882;-0.310;2022-11-15T14:51:18;13.50;84.00
57566;DHT22;63999;43.882;-0.310;2022-11-15T14:53:45;13.50;84.00
57566;DHT22;63999;43.882;-0.310;2022-11-15T14:56:11;13.50;84.20
57566;DHT22;63999;43.882;-0.310;2022-11-15T14:58:37;13.50;84.10
57566;DHT22;63999;43.882;-0.310;2022-11-15T15:01:16;13.50;84.30
57566;DHT22;63999;43.882;-0.310;2022-11-15T15:03:43;13.50;84.20
57566;DHT22;63999;43.882;-0.310;2022-11-15T15:06:10;13.50;84.30
57566;DHT22;63999;43.882;-0.310;2022-11-15T15:08:38;13.50;84.10
57566;DHT22;63999;43.882;-0.310;2022-11-15T15:13:44;13.50;84.00
57566;DHT22;63999;43.882;-0.310;2022-11-15T15:16:11;13.50;84.40
57566;DHT22;63999;43.882;-0.310;2022-11-15T15:18:38;13.50;84.30
57566;DHT22;63999;43.882;-0.310;2022-11-15T15:21:23;13.50;84.10
57566;DHT22;63999;43.882;-0.310;2022-11-15T15:23:50;13.50;84.30
57566;DHT22;63999;43.882;-0.310;2022-11-15T15:26:16;13.50;84.30
57566;DHT22;63999;43.882;-0.310;2022-11-15T15:28:41;13.50;84.10
57566;DHT22;63999;43.882;-0.310;2022-11-15T15:31:09;13.50;84.00
57566;DHT22;63999;43.882;-0.310;2022-11-15T15:33:35;13.50;84.00
57566;DHT22;63999;43.882;-0.310;2022-11-15T15:36:02;13.50;84.00
57566;DHT22;63999;43.882;-0.310;2022-11-15T15:38:31;13.50;83.90
57566;DHT22;63999;43.882;-0.310;2022-11-15T15:40:57;13.50;84.10
57566;DHT22;63999;43.882;-0.310;2022-11-15T15:43:26;13.50;84.00
57566;DHT22;63999;43.882;-0.310;2022-11-15T15:45:52;13.50;84.10
57566;DHT22;63999;43.882;-0.310;2022-11-15T15:48:18;13.50;84.00
57566;DHT22;63999;43.882;-0.310;2022-11-15T15:50:43;13.50;83.90
57566;DHT22;63999;43.882;-0.310;2022-11-15T15:53:12;13.50;84.00
57566;DHT22;63999;43.882;-0.310;2022-11-15T15:55:39;13.60;83.90
57566;DHT22;63999;43.882;-0.310;2022-11-15T15:58:05;13.60;83.90
57566;DHT22;63999;43.882;-0.310;2022-11-15T16:00:32;13.60;84.00
57566;DHT22;63999;43.882;-0.310;2022-11-15T16:03:00;13.60;84.00
57566;DHT22;63999;43.882;-0.310;2022-11-15T16:05:26;13.60;84.20
57566;DHT22;63999;43.882;-0.310;2022-11-15T16:07:51;13.60;84.30
57566;DHT22;63999;43.882;-0.310;2022-11-15T16:10:29;13.60;84.20
57566;DHT22;63999;43.882;-0.310;2022-11-15T16:12:56;13.60;84.00
57566;DHT22;63999;43.882;-0.310;2022-11-15T16:15:24;13.60;84.00
57566;DHT22;63999;43.882;-0.310;2022-11-15T16:17:52;13.60;83.90
57566;DHT22;63999;43.882;-0.310;2022-11-15T16:20:39;13.60;84.00
57566;DHT22;63999;43.882;-0.310;2022-11-15T16:23:09;13.60;83.90
57566;DHT22;63999;43.882;-0.310;2022-11-15T16:30:43;13.60;83.90
57566;DHT22;63999;43.882;-0.310;2022-11-15T16:33:09;13.60;84.00
57566;DHT22;63999;43.882;-0.310;2022-11-15T16:35:34;13.60;84.00
57566;DHT22;63999;43.882;-0.310;2022-11-15T16:38:01;13.60;84.00
57566;DHT22;63999;43.882;-0.310;2022-11-15T16:40:32;13.60;84.00
57566;DHT22;63999;43.882;-0.310;2022-11-15T16:42:58;13.60;84.00
57566;DHT22;63999;43.882;-0.310;2022-11-15T16:45:29;13.60;84.00
57566;DHT22;63999;43.882;-0.310;2022-11-15T16:47:56;13.70;84.00
57566;DHT22;63999;43.882;-0.310;2022-11-15T16:50:24;13.60;83.90
57566;DHT22;63999;43.882;-0.310;2022-11-15T16:52:55;13.70;84.10
57566;DHT22;63999;43.882;-0.310;2022-11-15T16:55:24;13.70;84.10
57566;DHT22;63999;43.882;-0.310;2022-11-15T16:57:50;13.70;84.40
57566;DHT22;63999;43.882;-0.310;2022-11-15T17:00:17;13.70;84.30
57566;DHT22;63999;43.882;-0.310;2022-11-15T17:02:45;13.70;84.10
57566;DHT22;63999;43.882;-0.310;2022-11-15T17:05:11;13.70;84.00
57566;DHT22;63999;43.882;-0.310;2022-11-15T17:07:38;13.70;84.30
57566;DHT22;63999;43.882;-0.310;2022-11-15T17:10:05;13.80;83.90
57566;DHT22;63999;43.882;-0.310;2022-11-15T17:12:35;13.80;84.50
57566;DHT22;63999;43.882;-0.310;2022-11-15T17:15:02;13.90;84.40
57566;DHT22;63999;43.882;-0.310;2022-11-15T17:17:30;13.90;84.20